Time;durP1;ratioP1;P1;durP2;ratioP2;P2;SDS_P1;SDS_P2;PMS_P1;PMS_P2;Temp;Humidity;BMP_temperature;BMP_pressure;BME280_temperature;BME280_humidity;BME280_pressure;Samples;Min_cycle;Max_cycle;Signal;HPM_P1;HPM_P2
2023/01/09 00:01:47;;;;;;;3.97;2.40;;;10.70;99.90;;;;;;7390082;19;20203;-77
2023/01/09 00:04:13;;;;;;;3.67;2.40;;;10.70;99.90;;;;;;7393011;19;20147;-76
2023/01/09 00:06:42;;;;;;;3.20;2.43;;;10.60;99.90;;;;;;7391664;19;20151;-76
2023/01/09 00:09:09;;;;;;;3.10;2.80;;;10.70;99.90;;;;;;7395232;19;20595;-76
2023/01/09 00:11:35;;;;;;;4.47;2.67;;;10.70;99.90;;;;;;7391112;19;20146;-77
2023/01/09 00:14:01;;;;;;;2.77;2.30;;;10.70;99.90;;;;;;7390776;19;20163;-77
2023/01/09 00:16:26;;;;;;;3.00;2.57;;;10.70;99.90;;;;;;7388228;19;20498;-77
2023/01/09 00:18:52;;;;;;;3.40;2.67;;;10.70;99.90;;;;;;7391840;19;20156;-77
2023/01/09 00:21:19;;;;;;;2.57;2.27;;;10.60;99.90;;;;;;7393918;19;20150;-78
2023/01/09 00:23:45;;;;;;;3.17;2.50;;;10.70;99.90;;;;;;7391075;19;20530;-77
2023/01/09 00:26:13;;;;;;;3.70;2.40;;;10.80;99.90;;;;;;7393204;19;20141;-76
2023/01/09 00:28:39;;;;;;;3.03;2.37;;;10.70;99.90;;;;;;7387752;19;20139;-76
2023/01/09 00:31:07;;;;;;;2.57;2.37;;;10.80;99.90;;;;;;7392846;19;20561;-76
2023/01/09 00:33:37;;;;;;;2.20;2.00;;;10.80;99.90;;;;;;7390194;19;20214;-77
2023/01/09 00:36:03;;;;;;;2.67;2.30;;;10.80;99.90;;;;;;7393057;19;20130;-76
2023/01/09 00:38:30;;;;;;;2.70;2.20;;;10.80;99.90;;;;;;7392043;19;20143;-78
2023/01/09 00:40:55;;;;;;;2.63;2.30;;;10.80;99.90;;;;;;7392260;19;20142;-77
2023/01/09 00:43:25;;;;;;;2.20;2.00;;;10.80;99.90;;;;;;7393928;19;20477;-76
2023/01/09 00:45:50;;;;;;;1.83;1.70;;;10.80;99.90;;;;;;7393350;19;20142;-77
2023/01/09 00:48:23;;;;;;;2.17;1.57;;;10.80;99.90;;;;;;7391619;19;20898;-78
2023/01/09 00:50:50;;;;;;;2.20;2.00;;;10.80;99.90;;;;;;7390139;19;20138;-75
2023/01/09 00:53:20;;;;;;;2.33;2.03;;;10.80;99.90;;;;;;7391947;19;20153;-76
2023/01/09 00:55:46;;;;;;;2.23;1.80;;;10.80;99.90;;;;;;7389017;19;20130;-76
2023/01/09 00:58:11;;;;;;;2.50;1.67;;;10.80;99.90;;;;;;7391336;19;20147;-76
2023/01/09 01:00:37;;;;;;;2.30;1.77;;;10.90;99.90;;;;;;7392081;19;20135;-77
2023/01/09 01:03:03;;;;;;;1.80;1.70;;;10.80;99.90;;;;;;7387769;19;20161;-76
2023/01/09 01:08:16;;;;;;;1.73;1.57;;;10.90;99.90;;;;;;7388996;19;20135;-76
2023/01/09 01:10:42;;;;;;;1.90;1.40;;;10.80;99.90;;;;;;7390115;19;20150;-76
2023/01/09 01:13:09;;;;;;;2.00;1.30;;;10.80;99.90;;;;;;7391101;19;20214;-77
2023/01/09 01:15:38;;;;;;;2.50;0.97;;;10.90;99.90;;;;;;7390074;19;20146;-77
2023/01/09 01:18:04;;;;;;;2.10;1.10;;;10.70;99.90;;;;;;7391485;19;20166;-77
2023/01/09 01:20:30;;;;;;;2.20;0.90;;;10.70;99.90;;;;;;7390883;19;20135;-77
2023/01/09 01:22:56;;;;;;;1.10;1.00;;;10.70;99.90;;;;;;7386273;19;20575;-77
2023/01/09 01:25:22;;;;;;;1.10;0.90;;;10.70;99.90;;;;;;7392492;19;20155;-76
2023/01/09 01:27:50;;;;;;;1.27;0.80;;;10.70;99.90;;;;;;7392926;19;20131;-76
2023/01/09 01:30:18;;;;;;;1.07;0.90;;;10.70;99.90;;;;;;7387859;19;20135;-77
2023/01/09 01:32:45;;;;;;;0.80;0.80;;;10.80;99.90;;;;;;7388493;19;20650;-76
2023/01/09 01:35:11;;;;;;;1.60;1.00;;;10.80;99.90;;;;;;7388678;19;20139;-77
2023/01/09 01:37:37;;;;;;;0.60;0.60;;;10.80;99.90;;;;;;7393023;19;20146;-77
2023/01/09 01:40:05;;;;;;;1.30;0.90;;;10.70;99.90;;;;;;7386074;19;20485;-75
2023/01/09 01:42:31;;;;;;;1.30;0.67;;;10.70;99.90;;;;;;7388571;19;20239;-77
2023/01/09 01:45:18;;;;;;;0.60;0.60;;;10.70;99.90;;;;;;7387574;19;20154;-77
2023/01/09 01:48:02;;;;;;;0.50;0.50;;;10.80;99.90;;;;;;7387560;19;20171;-78
2023/01/09 01:50:46;;;;;;;0.63;0.60;;;10.60;99.90;;;;;;7388160;19;20618;-77
2023/01/09 01:53:22;;;;;;;0.97;0.53;;;10.70;99.90;;;;;;7388439;19;20141;-76
2023/01/09 01:56:14;;;;;;;0.63;0.63;;;10.60;99.90;;;;;;7389693;19;20162;-77
2023/01/09 01:58:57;;;;;;;0.77;0.47;;;10.60;99.90;;;;;;7388051;19;20134;-76
2023/01/09 02:01:24;;;;;;;1.10;0.70;;;10.70;99.90;;;;;;7385769;19;20134;-74
2023/01/09 02:03:53;;;;;;;0.80;0.50;;;10.60;99.90;;;;;;7387827;19;20138;-73
2023/01/09 02:06:19;;;;;;;0.40;0.40;;;10.60;99.90;;;;;;7387865;19;20149;-73
2023/01/09 02:08:46;;;;;;;0.43;0.40;;;10.50;99.90;;;;;;7389383;19;20551;-73
2023/01/09 02:11:13;;;;;;;0.43;0.40;;;10.30;99.90;;;;;;7388810;19;20150;-74
2023/01/09 02:13:39;;;;;;;1.63;0.60;;;10.40;99.90;;;;;;7390437;19;20130;-72
2023/01/09 02:16:26;;;;;;;0.77;0.37;;;10.50;99.90;;;;;;7391309;19;20147;-73
2023/01/09 02:19:28;;;;;;;1.00;0.40;;;10.50;99.90;;;;;;7391131;19;20130;-72
2023/01/09 02:22:13;;;;;;;0.50;0.40;;;10.60;99.90;;;;;;7386761;19;20134;-72
2023/01/09 02:25:23;;;;;;;0.60;0.60;;;10.70;99.90;;;;;;7389128;19;20154;-72
2023/01/09 02:27:57;;;;;;;0.43;0.43;;;10.80;99.90;;;;;;7390837;19;20210;-72
2023/01/09 02:30:41;;;;;;;1.50;0.40;;;10.70;99.90;;;;;;7390844;19;20513;-72
2023/01/09 02:33:21;;;;;;;0.70;0.50;;;10.80;99.90;;;;;;7388472;19;20204;-72
2023/01/09 02:35:57;;;;;;;0.40;0.40;;;10.70;99.90;;;;;;7390305;19;20528;-73
2023/01/09 02:38:34;;;;;;;0.33;0.33;;;10.80;99.90;;;;;;7390315;19;20146;-73
2023/01/09 02:41:07;;;;;;;0.53;0.50;;;10.80;99.90;;;;;;7393451;19;20629;-73
2023/01/09 02:43:33;;;;;;;0.47;0.43;;;10.80;99.90;;;;;;7392978;19;20150;-73
2023/01/09 02:45:58;;;;;;;1.97;0.40;;;10.60;99.90;;;;;;7394959;19;20155;-73
2023/01/09 02:48:24;;;;;;;0.40;0.40;;;10.40;99.90;;;;;;7394781;19;20142;-72
2023/01/09 02:51:11;;;;;;;1.70;0.50;;;10.50;99.90;;;;;;7394364;19;20163;-73
2023/01/09 02:53:54;;;;;;;0.50;0.50;;;10.30;99.90;;;;;;7396213;19;20713;-73
2023/01/09 02:56:57;;;;;;;0.40;0.40;;;10.40;99.90;;;;;;7397560;19;20131;-73
2023/01/09 03:00:08;;;;;;;0.60;0.50;;;10.30;99.90;;;;;;7396726;19;20198;-74
2023/01/09 03:02:42;;;;;;;0.30;0.30;;;10.40;99.90;;;;;;7388394;19;20161;-73
2023/01/09 03:05:17;;;;;;;3.63;0.47;;;10.50;99.90;;;;;;7393359;19;20201;-73
2023/01/09 03:08:00;;;;;;;0.30;0.30;;;10.50;99.90;;;;;;7395565;19;20149;-73
2023/01/09 03:10:34;;;;;;;0.40;0.33;;;10.30;99.90;;;;;;7390433;19;20147;-73
2023/01/09 03:13:02;;;;;;;1.03;0.40;;;10.30;99.90;;;;;;7393559;19;20142;-73
2023/01/09 03:15:33;;;;;;;0.30;0.30;;;10.30;99.90;;;;;;7394663;19;20637;-74
2023/01/09 03:18:00;;;;;;;0.40;0.40;;;10.20;99.90;;;;;;7394142;19;20506;-73
2023/01/09 03:20:27;;;;;;;0.30;0.30;;;10.10;99.90;;;;;;7396096;19;20139;-73
2023/01/09 03:22:58;;;;;;;0.50;0.40;;;10.10;99.90;;;;;;7393241;19;20135;-74
2023/01/09 03:25:26;;;;;;;0.40;0.30;;;10.10;99.90;;;;;;7397793;19;20134;-73
2023/01/09 03:27:55;;;;;;;0.40;0.40;;;10.20;99.90;;;;;;7395364;19;20142;-73
2023/01/09 03:30:21;;;;;;;1.90;0.50;;;10.40;99.90;;;;;;7396745;19;20135;-74
2023/01/09 03:32:47;;;;;;;0.40;0.37;;;10.30;99.90;;;;;;7389539;19;20178;-73
2023/01/09 03:35:13;;;;;;;0.60;0.40;;;10.20;99.90;;;;;;7395030;19;20139;-73
2023/01/09 03:37:38;;;;;;;0.30;0.30;;;10.30;99.90;;;;;;7395578;19;20141;-73
2023/01/09 03:40:05;;;;;;;0.30;0.30;;;10.20;99.90;;;;;;7393942;19;20582;-71
2023/01/09 03:42:31;;;;;;;1.03;0.30;;;10.10;99.90;;;;;;7391961;19;20155;-73
2023/01/09 03:44:57;;;;;;;0.40;0.30;;;10.30;99.90;;;;;;7392697;19;20134;-74
2023/01/09 03:47:22;;;;;;;0.20;0.20;;;10.20;99.90;;;;;;7389575;19;20139;-74
2023/01/09 03:49:48;;;;;;;0.20;0.20;;;10.10;99.90;;;;;;7393254;19;20150;-73
2023/01/09 03:52:14;;;;;;;0.20;0.20;;;10.20;99.90;;;;;;7395364;19;20138;-73
2023/01/09 03:54:40;;;;;;;0.93;0.37;;;10.20;99.90;;;;;;7393538;19;20159;-73
2023/01/09 03:57:05;;;;;;;0.30;0.30;;;10.30;99.90;;;;;;7394586;19;20155;-74
2023/01/09 03:59:31;;;;;;;0.20;0.20;;;10.40;99.90;;;;;;7393880;19;20146;-73
2023/01/09 04:01:57;;;;;;;0.30;0.30;;;10.30;99.90;;;;;;7391603;19;20143;-72
2023/01/09 04:04:23;;;;;;;0.20;0.20;;;10.00;99.90;;;;;;7391595;19;20182;-72
2023/01/09 04:06:48;;;;;;;0.30;0.30;;;10.30;99.90;;;;;;7395910;19;20134;-73
2023/01/09 04:09:14;;;;;;;0.30;0.30;;;10.30;99.90;;;;;;7394233;19;20130;-73
2023/01/09 04:11:40;;;;;;;0.43;0.20;;;10.30;99.90;;;;;;7392487;19;20153;-73
2023/01/09 04:14:05;;;;;;;0.30;0.30;;;10.30;99.90;;;;;;7391364;19;20143;-73
2023/01/09 04:16:31;;;;;;;0.20;0.20;;;10.10;99.90;;;;;;7391268;19;20665;-73
2023/01/09 04:18:57;;;;;;;0.30;0.30;;;10.20;99.90;;;;;;7394315;19;20253;-74
2023/01/09 04:21:23;;;;;;;0.30;0.30;;;10.20;99.90;;;;;;7387822;19;20151;-74
2023/01/09 04:23:48;;;;;;;0.20;0.20;;;10.20;99.90;;;;;;7391916;19;20142;-72
2023/01/09 04:26:15;;;;;;;0.27;0.20;;;10.20;99.90;;;;;;7393416;19;20123;-72
2023/01/09 04:28:43;;;;;;;0.40;0.20;;;10.10;99.90;;;;;;7392301;19;20131;-73
2023/01/09 04:31:09;;;;;;;0.30;0.30;;;9.90;99.90;;;;;;7390153;19;20139;-72
2023/01/09 04:33:35;;;;;;;0.20;0.20;;;9.70;99.90;;;;;;7391383;19;20151;-74
2023/01/09 04:36:01;;;;;;;0.30;0.30;;;9.70;99.90;;;;;;7393486;19;20598;-73
2023/01/09 04:38:26;;;;;;;0.27;0.27;;;9.70;99.90;;;;;;7392620;19;20130;-73
2023/01/09 04:40:52;;;;;;;0.33;0.20;;;9.60;99.90;;;;;;7390635;19;20134;-73
2023/01/09 04:43:18;;;;;;;0.63;0.30;;;9.80;99.90;;;;;;7388140;19;20219;-72
2023/01/09 04:45:44;;;;;;;0.30;0.30;;;9.50;99.90;;;;;;7392041;19;20153;-73
2023/01/09 04:48:10;;;;;;;0.30;0.30;;;9.40;99.90;;;;;;7391497;19;20214;-72
2023/01/09 04:50:36;;;;;;;0.30;0.30;;;9.50;99.90;;;;;;7391525;19;20150;-74
2023/01/09 04:53:02;;;;;;;0.40;0.40;;;9.40;99.90;;;;;;7393224;19;20141;-74
2023/01/09 04:55:28;;;;;;;0.93;0.30;;;9.50;99.90;;;;;;7390468;19;20158;-73
2023/01/09 04:57:53;;;;;;;0.30;0.30;;;9.40;99.90;;;;;;7394056;19;20137;-74
2023/01/09 05:00:19;;;;;;;0.63;0.40;;;9.50;99.90;;;;;;7390693;19;20158;-75
2023/01/09 05:02:45;;;;;;;1.07;0.30;;;9.40;99.90;;;;;;7387284;19;20147;-72
2023/01/09 05:05:11;;;;;;;0.40;0.30;;;9.60;99.90;;;;;;7393313;19;20775;-72
2023/01/09 05:07:36;;;;;;;0.50;0.30;;;9.70;99.90;;;;;;7390571;19;20498;-72
2023/01/09 05:10:04;;;;;;;0.67;0.40;;;9.80;99.90;;;;;;7395438;19;20126;-72
2023/01/09 05:12:29;;;;;;;0.30;0.30;;;9.60;99.90;;;;;;7390031;19;20150;-73
2023/01/09 05:14:56;;;;;;;0.23;0.23;;;9.50;99.90;;;;;;7389807;19;20725;-73
2023/01/09 05:17:22;;;;;;;1.00;0.40;;;9.60;99.90;;;;;;7392693;19;20145;-73
2023/01/09 05:19:48;;;;;;;0.30;0.30;;;9.60;99.90;;;;;;7393779;19;20481;-73
2023/01/09 05:22:14;;;;;;;0.67;0.30;;;9.60;99.90;;;;;;7391694;19;20134;-75
2023/01/09 05:24:40;;;;;;;0.30;0.30;;;9.60;99.90;;;;;;7391444;19;20203;-73
2023/01/09 05:27:06;;;;;;;0.60;0.60;;;9.50;99.90;;;;;;7391037;19;20130;-72
2023/01/09 05:29:31;;;;;;;0.33;0.30;;;9.40;99.90;;;;;;7389754;19;20146;-72
2023/01/09 05:31:57;;;;;;;0.50;0.50;;;9.60;99.90;;;;;;7393207;19;20450;-72
2023/01/09 05:34:23;;;;;;;0.53;0.47;;;9.50;99.90;;;;;;7388011;19;20161;-72
2023/01/09 05:36:49;;;;;;;0.40;0.40;;;9.40;99.90;;;;;;7391954;19;20138;-72
2023/01/09 05:39:15;;;;;;;0.40;0.40;;;9.00;99.90;;;;;;7391003;19;20229;-73
2023/01/09 05:41:40;;;;;;;1.13;0.40;;;9.00;99.90;;;;;;7389006;19;20130;-73
2023/01/09 05:44:06;;;;;;;1.87;0.50;;;9.30;99.90;;;;;;7389065;19;20228;-74
2023/01/09 05:46:32;;;;;;;1.43;0.60;;;9.60;99.90;;;;;;7389691;19;20488;-73
2023/01/09 05:48:58;;;;;;;0.30;0.30;;;9.40;99.90;;;;;;7391399;19;20135;-73
2023/01/09 05:51:23;;;;;;;0.37;0.37;;;9.30;99.90;;;;;;7391207;19;20135;-72
2023/01/09 05:53:49;;;;;;;0.80;0.50;;;9.30;99.90;;;;;;7389139;19;20134;-73
2023/01/09 05:56:15;;;;;;;0.83;0.30;;;9.40;99.90;;;;;;7389336;19;20233;-73
2023/01/09 05:58:41;;;;;;;1.87;0.60;;;9.50;99.90;;;;;;7387209;19;20135;-74
2023/01/09 06:01:07;;;;;;;1.00;0.40;;;9.40;99.90;;;;;;7387519;19;20138;-74
2023/01/09 06:03:33;;;;;;;0.67;0.50;;;9.40;99.90;;;;;;7387425;19;20634;-73
2023/01/09 06:05:59;;;;;;;1.00;0.50;;;9.40;99.90;;;;;;7393226;19;20138;-73
2023/01/09 06:08:24;;;;;;;0.40;0.40;;;9.50;99.90;;;;;;7389206;19;20205;-74
2023/01/09 06:10:50;;;;;;;0.87;0.50;;;9.30;99.90;;;;;;7391806;19;20239;-73
2023/01/09 06:13:16;;;;;;;0.40;0.40;;;9.10;99.90;;;;;;7390762;19;20614;-72
2023/01/09 06:15:42;;;;;;;1.77;0.50;;;9.20;99.90;;;;;;7394446;19;20131;-72
2023/01/09 06:18:11;;;;;;;0.50;0.50;;;9.10;99.90;;;;;;7395326;19;20142;-73
2023/01/09 06:20:36;;;;;;;1.67;0.70;;;9.30;99.90;;;;;;7396164;19;20142;-74
2023/01/09 06:23:02;;;;;;;0.47;0.40;;;9.30;99.90;;;;;;7391888;19;20595;-73
2023/01/09 06:25:28;;;;;;;0.87;0.60;;;9.40;99.90;;;;;;7394851;19;20142;-74
2023/01/09 06:27:54;;;;;;;0.33;0.33;;;9.20;99.90;;;;;;7396384;19;20135;-73
2023/01/09 06:30:20;;;;;;;2.07;0.60;;;9.20;99.90;;;;;;7395218;19;20494;-72
2023/01/09 06:32:49;;;;;;;0.30;0.30;;;9.40;99.90;;;;;;7385917;19;20188;-71
2023/01/09 06:35:19;;;;;;;0.97;0.50;;;9.30;99.90;;;;;;7394191;19;20146;-72
2023/01/09 06:37:48;;;;;;;1.03;0.47;;;9.30;99.90;;;;;;7394093;19;20143;-73
2023/01/09 06:40:15;;;;;;;2.50;0.70;;;9.40;99.90;;;;;;7394669;19;20130;-74
2023/01/09 06:42:45;;;;;;;0.30;0.30;;;9.30;99.90;;;;;;7389632;19;20154;-74
2023/01/09 06:45:12;;;;;;;0.60;0.30;;;9.20;99.90;;;;;;7395419;19;20480;-73
2023/01/09 06:47:38;;;;;;;0.93;0.50;;;9.00;99.90;;;;;;7394118;19;20127;-74
2023/01/09 06:50:04;;;;;;;0.47;0.37;;;9.10;99.90;;;;;;7396633;19;20142;-73
2023/01/09 06:52:30;;;;;;;0.77;0.60;;;9.20;99.90;;;;;;7394163;19;20944;-73
2023/01/09 06:54:56;;;;;;;0.80;0.60;;;9.00;99.90;;;;;;7396020;19;20142;-73
2023/01/09 06:57:21;;;;;;;2.07;0.50;;;9.10;99.90;;;;;;7395020;19;20594;-72
2023/01/09 06:59:47;;;;;;;0.90;0.50;;;9.10;99.90;;;;;;7392849;19;20134;-74
2023/01/09 07:02:20;;;;;;;0.50;0.50;;;9.00;99.90;;;;;;7393698;19;20230;-74
2023/01/09 07:04:46;;;;;;;1.03;0.60;;;9.00;99.90;;;;;;7395301;19;20138;-73
2023/01/09 07:07:13;;;;;;;0.83;0.63;;;9.10;99.90;;;;;;7393748;19;20601;-74
2023/01/09 07:09:38;;;;;;;0.63;0.40;;;9.30;99.90;;;;;;7391922;19;20252;-73
2023/01/09 07:12:05;;;;;;;2.00;0.87;;;9.10;99.90;;;;;;7392321;19;20158;-74
2023/01/09 07:14:30;;;;;;;0.53;0.53;;;9.20;99.90;;;;;;7390822;19;20594;-73
2023/01/09 07:16:57;;;;;;;4.13;2.10;;;9.20;99.90;;;;;;7392978;19;20138;-74
2023/01/09 07:19:23;;;;;;;2.77;1.80;;;9.20;99.90;;;;;;7393446;19;20162;-73
2023/01/09 07:21:49;;;;;;;1.50;0.83;;;9.30;99.90;;;;;;7391924;19;20154;-73
2023/01/09 07:24:14;;;;;;;2.53;0.50;;;9.10;99.90;;;;;;7393798;19;20790;-72
2023/01/09 07:26:40;;;;;;;1.67;0.77;;;9.10;99.90;;;;;;7392749;19;20163;-74
2023/01/09 07:29:06;;;;;;;1.47;0.90;;;9.20;99.90;;;;;;7391978;19;20131;-73
2023/01/09 07:31:32;;;;;;;1.17;0.60;;;9.10;99.90;;;;;;7393260;19;20445;-74
2023/01/09 07:33:57;;;;;;;1.80;0.90;;;9.20;99.90;;;;;;7391155;19;20500;-73
2023/01/09 07:36:23;;;;;;;1.73;0.70;;;9.20;99.90;;;;;;7392361;19;20642;-72
2023/01/09 07:38:49;;;;;;;2.50;1.10;;;9.10;99.90;;;;;;7394150;19;20589;-72
2023/01/09 07:41:14;;;;;;;4.43;0.50;;;9.10;99.90;;;;;;7396051;19;20170;-74
2023/01/09 07:43:40;;;;;;;2.40;0.90;;;9.00;99.90;;;;;;7392647;19;20250;-74
2023/01/09 07:46:06;;;;;;;1.97;0.87;;;9.10;99.90;;;;;;7394174;19;20151;-74
2023/01/09 07:48:32;;;;;;;0.93;0.63;;;9.20;99.90;;;;;;7393448;19;20142;-74
2023/01/09 07:50:59;;;;;;;0.87;0.50;;;9.10;99.90;;;;;;7394152;19;20595;-73
2023/01/09 07:53:24;;;;;;;3.27;0.80;;;9.00;99.90;;;;;;7390511;19;20166;-74
2023/01/09 07:55:50;;;;;;;3.37;0.80;;;9.10;99.90;;;;;;7393300;19;20154;-74
2023/01/09 07:58:16;;;;;;;2.77;1.00;;;9.20;99.90;;;;;;7393822;19;20142;-71
2023/01/09 08:00:42;;;;;;;0.70;0.50;;;9.10;99.90;;;;;;7390249;19;20166;-73
2023/01/09 08:03:09;;;;;;;3.60;1.00;;;8.80;99.90;;;;;;7386900;19;20147;-76
2023/01/09 08:05:36;;;;;;;2.30;0.80;;;8.80;99.90;;;;;;7391473;19;20150;-74
2023/01/09 08:08:02;;;;;;;3.67;1.00;;;9.00;99.90;;;;;;7391774;19;20488;-73
2023/01/09 08:10:27;;;;;;;1.90;0.90;;;9.10;99.90;;;;;;7391109;19;20184;-73
2023/01/09 08:12:53;;;;;;;1.33;0.60;;;9.20;99.90;;;;;;7391260;19;20182;-73
2023/01/09 08:15:19;;;;;;;3.50;0.77;;;9.10;99.90;;;;;;7392328;19;20171;-73
2023/01/09 08:17:45;;;;;;;1.73;0.60;;;8.80;99.90;;;;;;7390782;19;20126;-73
2023/01/09 08:20:13;;;;;;;2.23;1.40;;;8.80;99.90;;;;;;7392417;19;20181;-73
2023/01/09 08:22:48;;;;;;;2.33;0.70;;;9.00;99.90;;;;;;7390105;19;20460;-74
2023/01/09 08:25:14;;;;;;;3.33;0.97;;;9.10;99.90;;;;;;7391142;19;20150;-74
2023/01/09 08:27:40;;;;;;;0.93;0.63;;;9.00;99.90;;;;;;7387049;19;20146;-73
2023/01/09 08:30:08;;;;;;;2.03;1.13;;;8.90;99.90;;;;;;7389282;19;20158;-73
2023/01/09 08:32:36;;;;;;;2.20;0.50;;;8.80;99.90;;;;;;7389951;19;20158;-73
2023/01/09 08:35:02;;;;;;;3.00;1.00;;;8.80;99.90;;;;;;7390650;19;20138;-73
2023/01/09 08:37:28;;;;;;;1.73;0.80;;;8.90;99.90;;;;;;7387972;19;20158;-73
2023/01/09 08:39:54;;;;;;;3.97;1.77;;;9.10;99.90;;;;;;7390402;19;20142;-72
2023/01/09 08:47:48;;;;;;;4.17;0.90;;;8.90;99.90;;;;;;7395543;19;20487;-73
2023/01/09 08:50:14;;;;;;;1.07;0.70;;;8.90;99.90;;;;;;7393880;19;20159;-72
2023/01/09 08:52:40;;;;;;;1.47;0.60;;;9.00;99.90;;;;;;7391442;19;20161;-73
2023/01/09 08:55:06;;;;;;;1.10;0.67;;;9.00;99.90;;;;;;7391152;19;20159;-72
2023/01/09 08:57:32;;;;;;;2.87;0.70;;;9.00;99.90;;;;;;7391270;19;20724;-73
2023/01/09 08:59:58;;;;;;;2.70;0.90;;;9.00;99.90;;;;;;7392320;19;20146;-73
2023/01/09 09:02:24;;;;;;;2.53;1.00;;;8.80;99.90;;;;;;7388508;19;20226;-73
2023/01/09 09:04:51;;;;;;;1.50;0.77;;;9.00;99.90;;;;;;7392252;19;20535;-73
2023/01/09 09:07:26;;;;;;;2.77;0.90;;;9.00;99.90;;;;;;7390366;19;20214;-72
2023/01/09 09:09:53;;;;;;;3.90;1.63;;;9.10;99.90;;;;;;7393463;19;20271;-73
2023/01/09 09:12:19;;;;;;;1.97;0.83;;;9.10;99.90;;;;;;7392573;19;20563;-72
2023/01/09 09:17:32;;;;;;;2.07;1.20;;;9.10;99.90;;;;;;7391140;19;20155;-72
2023/01/09 09:19:59;;;;;;;3.43;1.20;;;9.10;99.90;;;;;;7387891;19;20159;-73
2023/01/09 09:22:26;;;;;;;1.47;0.90;;;9.00;99.90;;;;;;7395832;19;20490;-73
2023/01/09 09:24:52;;;;;;;1.83;1.00;;;8.90;99.90;;;;;;7390413;19;20145;-73
2023/01/09 09:27:18;;;;;;;3.80;1.07;;;9.00;99.90;;;;;;7392253;19;20212;-73
2023/01/09 09:29:44;;;;;;;0.77;0.60;;;8.90;99.90;;;;;;7389790;19;20531;-73
2023/01/09 09:32:11;;;;;;;3.37;0.83;;;8.80;99.90;;;;;;7389936;19;20157;-72
2023/01/09 09:34:40;;;;;;;1.60;0.67;;;8.80;99.90;;;;;;7386183;19;20742;-72
2023/01/09 09:37:06;;;;;;;2.73;0.90;;;8.80;99.90;;;;;;7390657;19;20139;-72
2023/01/09 09:39:32;;;;;;;1.90;0.83;;;9.00;99.90;;;;;;7390592;19;20159;-73
2023/01/09 09:45:40;;;;;;;2.27;0.87;;;9.10;99.90;;;;;;7389533;19;20157;-74
2023/01/09 09:48:38;;;;;;;3.03;0.90;;;9.00;99.90;;;;;;7389286;19;20623;-72
2023/01/09 09:51:21;;;;;;;5.17;0.80;;;9.00;99.90;;;;;;7390153;19;20151;-73
2023/01/09 09:53:59;;;;;;;2.93;0.60;;;9.10;99.90;;;;;;7389905;19;20162;-72
2023/01/09 09:56:29;;;;;;;3.43;1.80;;;9.30;99.90;;;;;;7391373;19;20171;-73
2023/01/09 09:59:03;;;;;;;4.23;1.40;;;9.30;99.90;;;;;;7390339;19;20214;-74
2023/01/09 10:01:41;;;;;;;1.20;1.00;;;9.20;99.90;;;;;;7391641;19;20139;-74
2023/01/09 10:04:15;;;;;;;2.90;0.97;;;9.20;99.90;;;;;;7389726;19;20205;-73
2023/01/09 10:06:48;;;;;;;2.33;0.97;;;9.50;99.90;;;;;;7387675;19;20202;-74
2023/01/09 10:09:47;;;;;;;2.47;1.00;;;9.50;99.90;;;;;;7392949;19;20134;-73
2023/01/09 10:12:27;;;;;;;2.37;0.63;;;9.60;99.90;;;;;;7390075;19;20179;-72
2023/01/09 10:14:56;;;;;;;2.80;0.83;;;9.60;99.90;;;;;;7387895;19;20162;-73
2023/01/09 10:17:33;;;;;;;2.63;1.30;;;9.60;99.90;;;;;;7390135;19;20159;-73
2023/01/09 10:20:24;;;;;;;1.83;0.80;;;9.90;99.90;;;;;;7387135;19;20140;-73
2023/01/09 10:23:04;;;;;;;3.13;1.80;;;9.70;99.90;;;;;;7387947;19;20651;-73
2023/01/09 10:26:01;;;;;;;4.03;0.90;;;9.80;99.90;;;;;;7391693;19;20142;-71
2023/01/09 10:28:52;;;;;;;3.37;0.67;;;9.90;99.90;;;;;;7389457;19;20162;-73
2023/01/09 10:31:48;;;;;;;1.07;0.77;;;9.90;99.90;;;;;;7383559;19;20123;-72
2023/01/09 10:34:35;;;;;;;2.33;0.97;;;9.90;99.90;;;;;;7384843;19;20166;-72
2023/01/09 10:37:07;;;;;;;3.97;0.80;;;10.10;99.90;;;;;;7392107;19;20142;-73
2023/01/09 10:39:46;;;;;;;3.53;0.80;;;10.20;99.90;;;;;;7387436;19;20506;-72
2023/01/09 10:42:20;;;;;;;1.67;0.60;;;9.80;99.90;;;;;;7387012;19;20494;-72
2023/01/09 10:44:58;;;;;;;5.17;2.27;;;9.90;99.90;;;;;;7388045;19;20130;-73
2023/01/09 10:47:34;;;;;;;3.27;1.10;;;9.90;99.90;;;;;;7388308;19;20154;-73
2023/01/09 10:50:15;;;;;;;2.50;0.73;;;10.00;99.90;;;;;;7388220;19;20222;-73
2023/01/09 10:52:42;;;;;;;2.30;0.90;;;10.00;99.90;;;;;;7390553;19;20138;-74
2023/01/09 10:55:14;;;;;;;1.87;0.77;;;9.90;99.90;;;;;;7390100;19;20517;-73
2023/01/09 10:57:45;;;;;;;2.27;0.60;;;10.10;99.90;;;;;;7390622;19;20172;-72
2023/01/09 11:00:29;;;;;;;3.87;1.00;;;9.90;99.90;;;;;;7391777;19;20138;-72
2023/01/09 11:02:54;;;;;;;3.03;1.10;;;9.60;99.90;;;;;;7392357;19;20140;-73
2023/01/09 11:05:27;;;;;;;4.83;1.23;;;9.80;99.90;;;;;;7397512;19;20470;-74
2023/01/09 11:08:11;;;;;;;3.43;1.10;;;9.80;99.90;;;;;;7394185;19;20134;-73
2023/01/09 11:10:43;;;;;;;2.67;1.33;;;9.90;99.90;;;;;;7397690;19;20143;-74
2023/01/09 11:13:24;;;;;;;4.20;0.90;;;10.00;99.90;;;;;;7397601;19;20158;-74
2023/01/09 11:16:13;;;;;;;2.13;1.50;;;10.10;99.90;;;;;;7405122;19;20587;-73
2023/01/09 11:18:48;;;;;;;2.70;1.10;;;10.20;99.90;;;;;;7396976;19;20141;-72
2023/01/09 11:21:26;;;;;;;3.87;0.87;;;10.40;99.90;;;;;;7392982;19;20509;-72
2023/01/09 11:23:53;;;;;;;4.90;1.13;;;10.30;99.90;;;;;;7392066;19;20147;-74
2023/01/09 11:26:25;;;;;;;3.70;1.07;;;10.10;99.90;;;;;;7391228;19;20135;-74
2023/01/09 11:29:09;;;;;;;2.93;0.90;;;10.00;99.90;;;;;;7395258;19;20162;-72
2023/01/09 11:31:36;;;;;;;3.40;0.90;;;10.30;99.90;;;;;;7394607;19;20172;-73
2023/01/09 11:34:03;;;;;;;3.43;0.90;;;10.40;99.90;;;;;;7391945;19;20155;-73
2023/01/09 11:36:29;;;;;;;2.17;0.80;;;10.40;99.90;;;;;;7395725;19;20167;-72
2023/01/09 11:39:01;;;;;;;4.80;1.00;;;10.50;99.90;;;;;;7391329;19;20214;-73
2023/01/09 11:41:37;;;;;;;2.10;0.77;;;10.50;99.90;;;;;;7395687;19;20666;-71
2023/01/09 11:44:04;;;;;;;4.23;0.83;;;10.50;99.90;;;;;;7389348;19;20130;-74
2023/01/09 11:46:36;;;;;;;1.17;0.60;;;10.50;99.90;;;;;;7393223;19;20670;-72
2023/01/09 11:49:21;;;;;;;1.13;0.70;;;10.30;99.90;;;;;;7393264;19;20135;-73
2023/01/09 11:52:14;;;;;;;7.17;3.07;;;10.20;99.90;;;;;;7402141;19;20134;-72
2023/01/09 11:54:56;;;;;;;3.57;1.40;;;10.30;99.90;;;;;;7390343;19;20138;-73
2023/01/09 11:57:24;;;;;;;3.70;0.93;;;10.40;99.90;;;;;;7394308;19;20149;-74
2023/01/09 11:59:50;;;;;;;1.80;0.90;;;10.60;99.90;;;;;;7389739;19;20181;-73
2023/01/09 12:02:54;;;;;;;3.23;1.13;;;10.70;99.90;;;;;;7390281;19;20615;-74
2023/01/09 12:05:52;;;;;;;2.83;1.50;;;10.70;99.90;;;;;;7391314;19;20130;-73
2023/01/09 12:08:31;;;;;;;3.07;1.00;;;10.50;99.90;;;;;;7391770;19;20141;-75
2023/01/09 12:11:06;;;;;;;4.60;1.03;;;10.30;99.90;;;;;;7392545;19;20147;-73
2023/01/09 12:13:34;;;;;;;2.17;0.70;;;10.40;99.90;;;;;;7396009;19;20130;-74
2023/01/09 12:16:15;;;;;;;3.53;0.90;;;10.30;99.90;;;;;;7392476;19;20664;-73
2023/01/09 12:19:04;;;;;;;4.77;0.93;;;10.50;99.90;;;;;;7396015;19;20197;-74
2023/01/09 12:21:35;;;;;;;3.33;0.80;;;10.30;99.90;;;;;;7391505;19;20227;-73
2023/01/09 12:24:19;;;;;;;2.83;1.00;;;10.50;99.90;;;;;;7391107;19;20143;-74
2023/01/09 12:26:51;;;;;;;2.03;0.70;;;10.40;99.90;;;;;;7393947;19;20134;-74
2023/01/09 12:29:47;;;;;;;2.93;0.90;;;10.50;99.90;;;;;;7389541;19;20163;-72
2023/01/09 12:32:57;;;;;;;5.97;2.37;;;10.60;99.90;;;;;;7401384;19;20149;-73
2023/01/09 12:35:41;;;;;;;4.43;1.20;;;10.60;99.90;;;;;;7389431;19;20146;-73
2023/01/09 12:38:13;;;;;;;1.90;0.87;;;10.70;99.90;;;;;;7392628;19;20251;-74
2023/01/09 12:41:12;;;;;;;2.87;0.93;;;10.50;99.90;;;;;;7389807;19;20146;-73
2023/01/09 12:44:02;;;;;;;2.67;0.70;;;10.50;99.90;;;;;;7395420;19;20127;-74
2023/01/09 12:47:10;;;;;;;4.93;1.53;;;10.70;99.90;;;;;;7399496;19;20715;-74
2023/01/09 12:49:40;;;;;;;2.77;0.80;;;10.30;99.90;;;;;;7393505;19;20126;-72
2023/01/09 12:52:22;;;;;;;2.17;0.80;;;10.50;99.90;;;;;;7391652;19;20166;-72
2023/01/09 12:54:56;;;;;;;2.20;0.90;;;10.40;99.90;;;;;;7389181;19;20126;-72
2023/01/09 12:58:06;;;;;;;3.10;0.83;;;10.40;99.90;;;;;;7388850;19;20126;-73
2023/01/09 13:00:41;;;;;;;1.30;0.67;;;10.40;99.90;;;;;;7389416;19;20154;-73
2023/01/09 13:03:40;;;;;;;2.57;0.50;;;10.60;99.90;;;;;;7387585;19;20137;-74
2023/01/09 13:06:13;;;;;;;2.40;0.60;;;10.70;99.90;;;;;;7389559;19;20131;-74
2023/01/09 13:09:11;;;;;;;2.03;0.80;;;10.70;99.90;;;;;;7388695;19;20254;-74
2023/01/09 13:11:47;;;;;;;4.43;0.40;;;10.80;99.90;;;;;;7387595;19;20163;-73
2023/01/09 13:14:31;;;;;;;1.20;0.60;;;10.80;99.90;;;;;;7388305;19;20583;-74
2023/01/09 13:16:58;;;;;;;1.77;0.60;;;10.50;99.90;;;;;;7391834;19;20137;-74
2023/01/09 13:19:27;;;;;;;3.17;0.60;;;10.50;99.90;;;;;;7389680;19;20130;-74
2023/01/09 13:21:55;;;;;;;1.70;0.60;;;10.40;99.90;;;;;;7385223;19;20473;-72
2023/01/09 13:24:36;;;;;;;1.97;0.80;;;10.40;99.90;;;;;;7388357;19;20134;-73
2023/01/09 13:27:16;;;;;;;1.67;0.80;;;10.70;99.90;;;;;;7390513;19;20126;-72
2023/01/09 13:29:47;;;;;;;2.20;0.63;;;10.60;99.90;;;;;;7389554;19;20134;-73